Time;durP1;ratioP1;P1;durP2;ratioP2;P2;SDS_P1;SDS_P2;PMS_P1;PMS_P2;Temp;Humidity;BMP_temperature;BMP_pressure;BME280_temperature;BME280_humidity;BME280_pressure;Samples;Min_cycle;Max_cycle;Signal;HPM_P1;HPM_P2
2023/12/16 00:01:45;;;;;;;4.28;1.75;;;;;;;0.74;100.00;101618.41;5005794;28;20069;-70
2023/12/16 00:04:11;;;;;;;2.05;1.65;;;;;;;0.21;100.00;101531.22;5002172;28;20348;-70
2023/12/16 00:06:36;;;;;;;4.32;1.50;;;;;;;0.59;100.00;101605.13;4995243;28;20481;-70
2023/12/16 00:09:02;;;;;;;1.75;1.27;;;;;;;0.45;100.00;101597.84;5007195;28;20038;-70
2023/12/16 00:11:28;;;;;;;2.15;1.40;;;;;;;0.46;100.00;101615.78;5016326;28;20459;-69
2023/12/16 00:13:53;;;;;;;2.67;1.73;;;;;;;0.40;100.00;101606.66;5009945;28;20029;-70
2023/12/16 00:16:19;;;;;;;4.10;2.67;;;;;;;0.40;100.00;101620.25;4999894;28;20473;-70
2023/12/16 00:18:44;;;;;;;3.42;2.30;;;;;;;0.38;100.00;101614.13;5001574;28;20088;-71
2023/12/16 00:21:10;;;;;;;2.90;1.50;;;;;;;0.36;100.00;101610.53;5009090;28;20076;-70
2023/12/16 00:23:35;;;;;;;4.35;1.50;;;;;;;0.29;100.00;101601.44;5009460;28;20408;-70
2023/12/16 00:26:01;;;;;;;5.30;1.70;;;;;;;0.31;100.00;101619.38;5009152;28;20103;-70
2023/12/16 00:28:26;;;;;;;6.65;2.25;;;;;;;0.31;100.00;101615.19;5012184;28;20061;-69
2023/12/16 00:30:52;;;;;;;9.07;3.33;;;;;;;0.33;100.00;101622.97;5004558;28;20101;-71
2023/12/16 00:33:18;;;;;;;4.22;2.65;;;;;;;0.04;100.00;101570.25;5003099;28;20061;-70
2023/12/16 00:35:43;;;;;;;3.63;1.40;;;;;;;0.34;100.00;101627.28;4997288;28;20426;-70
2023/12/16 00:38:08;;;;;;;6.95;1.70;;;;;;;0.25;100.00;101604.44;4996032;28;20081;-70
2023/12/16 00:40:34;;;;;;;4.03;2.15;;;;;;;0.38;100.00;101629.38;4996274;28;20440;-70
2023/12/16 00:43:01;;;;;;;11.32;6.05;;;;;;;0.40;100.00;101640.59;5001625;28;20030;-70
2023/12/16 00:45:27;;;;;;;4.57;2.40;;;;;;;0.44;100.00;101636.72;5007992;28;20562;-70
2023/12/16 00:47:53;;;;;;;5.55;2.20;;;;;;;0.32;100.00;101622.06;5010472;28;20037;-70
2023/12/16 00:50:19;;;;;;;4.03;1.35;;;;;;;0.38;100.00;101642.06;5005944;28;20034;-70
2023/12/16 00:52:44;;;;;;;16.15;4.55;;;;;;;0.32;100.00;101631.31;5012177;28;20084;-70
2023/12/16 00:55:10;;;;;;;2.75;1.80;;;;;;;0.30;100.00;101640.47;5002465;28;20026;-70
2023/12/16 00:57:36;;;;;;;5.15;3.72;;;;;;;0.27;100.00;101627.44;5012782;28;20088;-70
2023/12/16 01:00:03;;;;;;;4.10;2.80;;;;;;;0.34;100.00;101651.78;5009142;28;20037;-70
2023/12/16 01:02:28;;;;;;;4.95;2.60;;;;;;;0.30;100.00;101655.69;5009341;28;20034;-70
2023/12/16 01:04:54;;;;;;;5.07;1.60;;;;;;;0.18;100.00;101632.53;5011075;28;20033;-70
2023/12/16 01:07:19;;;;;;;3.95;1.30;;;;;;;0.25;100.00;101655.25;5010978;28;20519;-70
2023/12/16 01:09:45;;;;;;;5.38;1.70;;;;;;;0.28;100.00;101654.66;5011217;28;20068;-70
2023/12/16 01:12:10;;;;;;;2.88;1.42;;;;;;;0.26;100.00;101658.66;5012706;28;20046;-70
2023/12/16 01:14:36;;;;;;;6.00;3.55;;;;;;;0.09;100.00;101624.91;5012338;28;20026;-70
2023/12/16 01:17:01;;;;;;;2.92;1.38;;;;;;;0.30;100.00;101664.19;5012572;28;20053;-69
2023/12/16 01:19:27;;;;;;;5.40;1.95;;;;;;;0.34;100.00;101665.41;5008724;28;20037;-70
2023/12/16 01:21:52;;;;;;;2.25;1.13;;;;;;;0.28;100.00;101650.44;5012171;28;20030;-70
2023/12/16 01:24:18;;;;;;;4.60;1.60;;;;;;;0.31;100.00;101653.31;5012403;28;20392;-70
2023/12/16 01:26:45;;;;;;;3.17;2.78;;;;;;;0.36;100.00;101663.88;5009968;28;20083;-69
2023/12/16 01:29:10;;;;;;;4.72;2.58;;;;;;;0.37;100.00;101657.19;5007961;28;20496;-69
2023/12/16 01:31:36;;;;;;;1.55;1.40;;;;;;;0.35;100.00;101649.41;5011988;28;20079;-70
2023/12/16 01:34:01;;;;;;;4.05;1.63;;;;;;;0.29;100.00;101638.66;4990493;28;21220;-69
2023/12/16 01:36:27;;;;;;;2.53;1.35;;;;;;;-0.11;100.00;101573.81;5006108;28;20108;-69
2023/12/16 01:38:52;;;;;;;2.63;1.20;;;;;;;0.27;100.00;101630.88;5011379;28;20168;-69
2023/12/16 01:41:18;;;;;;;6.20;3.10;;;;;;;0.27;100.00;101635.94;5011554;28;20389;-69
2023/12/16 01:43:43;;;;;;;2.85;2.20;;;;;;;0.26;100.00;101635.81;5011688;28;20459;-69
2023/12/16 01:46:10;;;;;;;6.38;1.73;;;;;;;0.23;100.00;101645.69;5011255;28;20029;-69
2023/12/16 01:48:35;;;;;;;4.97;1.50;;;;;;;0.21;100.00;101642.09;5012005;28;20079;-69
2023/12/16 01:51:01;;;;;;;3.15;1.38;;;;;;;0.19;100.00;101651.19;5011973;28;20025;-69
2023/12/16 01:53:29;;;;;;;6.93;2.38;;;;;;;0.17;100.00;101660.31;5011910;28;20027;-69
2023/12/16 01:55:56;;;;;;;1.65;1.55;;;;;;;0.08;100.00;101640.88;5012408;28;20029;-70
2023/12/16 01:58:23;;;;;;;3.38;1.60;;;;;;;-0.30;100.00;101569.47;5012447;28;20018;-69
2023/12/16 02:00:52;;;;;;;2.63;1.30;;;;;;;0.11;100.00;101658.06;5012475;28;20065;-69
2023/12/16 02:03:19;;;;;;;2.83;1.30;;;;;;;0.01;100.00;101648.66;5009388;28;20030;-69
2023/12/16 02:05:45;;;;;;;2.85;1.75;;;;;;;0.08;100.00;101656.13;5010862;28;20401;-69
2023/12/16 02:08:11;;;;;;;6.40;4.57;;;;;;;0.07;100.00;101661.06;5012083;28;20018;-69
2023/12/16 02:10:36;;;;;;;1.55;1.33;;;;;;;0.04;100.00;101654.03;5010746;28;20089;-69
2023/12/16 02:13:05;;;;;;;2.00;1.42;;;;;;;-0.29;100.00;101595.78;5012221;28;20483;-69
2023/12/16 02:15:30;;;;;;;4.93;1.55;;;;;;;-0.17;100.00;101630.84;5012208;28;20034;-69
2023/12/16 02:17:56;;;;;;;2.15;1.30;;;;;;;-0.35;100.00;101603.66;5011721;28;20037;-69
2023/12/16 02:20:22;;;;;;;2.72;2.00;;;;;;;0.01;100.00;101663.00;5011367;28;20036;-69
2023/12/16 02:22:48;;;;;;;0.80;0.80;;;;;;;-0.07;100.00;101652.09;5011727;28;20034;-69
2023/12/16 02:25:15;;;;;;;2.78;1.63;;;;;;;-0.08;100.00;101658.78;5009338;28;20045;-69
2023/12/16 02:27:41;;;;;;;3.65;1.17;;;;;;;0.00;100.00;101669.72;5011809;28;20033;-69
2023/12/16 02:30:08;;;;;;;3.40;1.20;;;;;;;0.01;100.00;101665.53;5011511;28;20028;-69
2023/12/16 02:32:34;;;;;;;1.10;1.00;;;;;;;-0.01;100.00;101673.00;5011437;28;20053;-69
2023/12/16 02:35:01;;;;;;;2.63;1.70;;;;;;;0.00;100.00;101667.19;5011205;28;20057;-69
2023/12/16 02:37:27;;;;;;;1.67;1.15;;;;;;;0.01;100.00;101663.88;5011612;28;20032;-69
2023/12/16 02:39:52;;;;;;;2.17;1.30;;;;;;;-0.38;100.00;101603.38;5011669;28;20026;-69
2023/12/16 02:42:18;;;;;;;2.58;1.08;;;;;;;0.03;100.00;101671.66;5010230;28;20030;-69
2023/12/16 02:44:43;;;;;;;3.92;1.75;;;;;;;0.04;100.00;101681.06;5010283;28;20033;-69
2023/12/16 02:47:09;;;;;;;2.92;1.00;;;;;;;-0.02;100.00;101683.91;5009039;28;20066;-69
2023/12/16 02:49:34;;;;;;;2.03;0.95;;;;;;;-0.43;100.00;101602.03;5011192;28;20052;-69
2023/12/16 02:52:00;;;;;;;7.90;2.90;;;;;;;-0.37;100.00;101621.28;5011199;28;20025;-69
2023/12/16 02:54:26;;;;;;;1.73;1.40;;;;;;;-0.10;100.00;101673.00;5011304;28;20064;-69
2023/12/16 02:56:52;;;;;;;4.80;1.15;;;;;;;-0.01;100.00;101689.13;5011283;28;20057;-69
2023/12/16 02:59:17;;;;;;;2.80;1.13;;;;;;;-0.31;100.00;101648.91;5010054;28;20061;-69
2023/12/16 03:01:43;;;;;;;1.35;0.82;;;;;;;-0.02;100.00;101686.44;5005091;28;20699;-69
2023/12/16 03:04:08;;;;;;;1.60;1.00;;;;;;;-0.02;100.00;101689.88;5011454;28;20041;-69
2023/12/16 03:06:35;;;;;;;2.35;1.33;;;;;;;-0.02;100.00;101700.00;5006343;28;20508;-70
2023/12/16 03:09:01;;;;;;;4.25;1.20;;;;;;;0.01;100.00;101699.41;5005018;28;20026;-69
2023/12/16 03:11:27;;;;;;;4.47;1.20;;;;;;;-0.50;100.00;101616.63;5011167;28;20092;-70
2023/12/16 03:13:52;;;;;;;9.45;2.85;;;;;;;0.09;100.00;101706.16;5010881;28;20030;-70
2023/12/16 03:16:18;;;;;;;3.17;1.30;;;;;;;0.10;100.00;101709.59;5010908;28;20021;-69
2023/12/16 03:18:44;;;;;;;2.20;1.30;;;;;;;0.07;100.00;101714.38;5010445;28;20036;-70
2023/12/16 03:21:10;;;;;;;2.75;1.13;;;;;;;0.12;100.00;101719.16;5010684;28;20408;-69
2023/12/16 03:23:35;;;;;;;5.47;1.25;;;;;;;0.12;100.00;101718.28;5010841;28;20420;-69
2023/12/16 03:26:01;;;;;;;6.93;1.30;;;;;;;0.06;100.00;101698.22;5009363;28;20033;-69
2023/12/16 03:28:26;;;;;;;1.60;1.15;;;;;;;0.17;100.00;101724.69;5010558;28;20389;-69
2023/12/16 03:30:52;;;;;;;7.38;2.08;;;;;;;0.19;100.00;101724.84;5010544;28;20026;-69
2023/12/16 03:33:17;;;;;;;5.30;4.05;;;;;;;0.22;100.00;101732.78;5010363;28;20232;-69
2023/12/16 03:35:43;;;;;;;1.42;0.90;;;;;;;0.21;100.00;101728.44;5010642;28;20029;-69
2023/12/16 03:38:08;;;;;;;1.80;0.93;;;;;;;0.21;100.00;101728.44;5010712;28;20483;-69
2023/12/16 03:40:34;;;;;;;2.22;1.30;;;;;;;0.23;100.00;101726.97;5010503;28;20073;-69
2023/12/16 03:42:59;;;;;;;1.63;0.90;;;;;;;0.07;100.00;101710.19;5010422;28;20399;-69
2023/12/16 03:45:25;;;;;;;2.70;1.30;;;;;;;0.21;100.00;101733.50;5010288;28;20026;-69
2023/12/16 03:47:50;;;;;;;4.28;2.78;;;;;;;0.21;100.00;101739.47;5010417;28;20126;-69
2023/12/16 03:50:16;;;;;;;4.93;2.15;;;;;;;0.05;100.00;101720.94;5010171;28;20453;-69
2023/12/16 03:52:41;;;;;;;5.00;1.60;;;;;;;0.20;100.00;101746.94;5010541;28;20152;-68
2023/12/16 03:55:07;;;;;;;5.03;1.48;;;;;;;-0.35;100.00;101669.63;5010100;28;20104;-68
2023/12/16 03:57:33;;;;;;;1.92;0.80;;;;;;;0.14;100.00;101757.41;5009105;28;20480;-68
2023/12/16 03:59:59;;;;;;;4.65;2.95;;;;;;;-0.26;100.00;101693.41;5010294;28;20400;-68
2023/12/16 04:02:25;;;;;;;2.70;2.00;;;;;;;-0.01;100.00;101736.47;5008617;28;20036;-68
2023/12/16 04:04:51;;;;;;;6.38;3.75;;;;;;;0.14;100.00;101758.31;5008322;28;20044;-68
2023/12/16 04:07:16;;;;;;;2.80;1.67;;;;;;;0.12;100.00;101762.31;5008556;28;20050;-68
2023/12/16 04:09:42;;;;;;;3.50;1.10;;;;;;;0.12;100.00;101762.31;5008591;28;20115;-68
2023/12/16 04:12:09;;;;;;;2.65;0.98;;;;;;;0.14;100.00;101762.50;5006066;28;20096;-68
2023/12/16 04:14:38;;;;;;;1.55;0.93;;;;;;;0.14;100.00;101767.56;5008450;28;20030;-69
2023/12/16 04:17:04;;;;;;;0.80;0.80;;;;;;;0.11;100.00;101769.78;5008344;28;20048;-68
2023/12/16 04:19:30;;;;;;;8.90;5.68;;;;;;;0.17;100.00;101772.06;5010550;28;20476;-68
2023/12/16 04:21:56;;;;;;;4.47;3.17;;;;;;;0.14;100.00;101780.28;5010694;28;20033;-68
2023/12/16 04:24:21;;;;;;;4.65;1.58;;;;;;;0.19;100.00;101793.41;5009023;28;20109;-68
2023/12/16 04:26:46;;;;;;;4.55;1.42;;;;;;;0.21;100.00;101792.81;5008598;28;20135;-68
2023/12/16 04:29:12;;;;;;;7.93;2.08;;;;;;;0.21;100.00;101792.81;5008686;28;20033;-68
2023/12/16 04:31:38;;;;;;;3.25;1.60;;;;;;;0.19;100.00;101788.31;5008456;28;20456;-68
2023/12/16 04:34:04;;;;;;;2.72;1.40;;;;;;;0.20;100.00;101801.19;5008090;28;20054;-68
2023/12/16 04:36:30;;;;;;;10.63;8.15;;;;;;;0.21;100.00;101799.53;5008585;28;20120;-68
2023/12/16 04:38:55;;;;;;;4.55;2.97;;;;;;;0.13;100.00;101789.50;5008377;28;20041;-68
2023/12/16 04:41:21;;;;;;;15.95;7.03;;;;;;;0.20;100.00;101797.75;5008330;28;20061;-68
2023/12/16 04:43:47;;;;;;;8.85;4.30;;;;;;;0.13;100.00;101786.97;5008372;28;20037;-68
2023/12/16 04:46:12;;;;;;;6.90;2.90;;;;;;;0.15;100.00;101803.28;5008060;28;20104;-68
2023/12/16 04:48:38;;;;;;;5.85;4.25;;;;;;;-0.02;100.00;101765.13;5008456;28;20060;-68
2023/12/16 04:51:07;;;;;;;2.63;1.60;;;;;;;-0.28;100.00;101720.25;5007800;28;20389;-68
2023/12/16 04:53:33;;;;;;;7.45;4.75;;;;;;;0.14;100.00;101804.00;4996962;28;20479;-68
2023/12/16 04:55:59;;;;;;;3.92;3.13;;;;;;;0.03;100.00;101784.28;4989728;28;20034;-68
2023/12/16 04:58:28;;;;;;;6.18;2.38;;;;;;;0.08;100.00;101797.44;5021512;28;20104;-69
2023/12/16 05:00:53;;;;;;;3.63;1.40;;;;;;;0.14;100.00;101790.44;4997796;28;20026;-68
2023/12/16 05:03:19;;;;;;;1.67;1.33;;;;;;;-0.21;100.00;101732.81;4990746;28;20485;-68
2023/12/16 05:05:44;;;;;;;4.95;3.13;;;;;;;0.19;100.00;101801.03;4991567;28;20043;-68
2023/12/16 05:08:11;;;;;;;1.75;1.30;;;;;;;0.20;100.00;101805.38;4989169;28;20460;-68
2023/12/16 05:10:37;;;;;;;4.95;2.88;;;;;;;0.21;100.00;101809.72;5004513;28;20539;-68
2023/12/16 05:13:02;;;;;;;3.00;1.15;;;;;;;0.24;100.00;101812.56;4990465;28;20030;-68
2023/12/16 05:15:28;;;;;;;6.07;4.03;;;;;;;0.19;100.00;101807.03;4992300;28;20053;-68
2023/12/16 05:17:53;;;;;;;4.78;2.97;;;;;;;0.24;100.00;101823.63;4993987;28;20139;-68
2023/12/16 05:20:19;;;;;;;21.83;10.35;;;;;;;0.24;100.00;101820.19;4993739;28;20053;-68
2023/12/16 05:22:44;;;;;;;7.35;3.92;;;;;;;0.23;100.00;101818.38;4993948;28;20447;-68
2023/12/16 05:25:10;;;;;;;2.90;1.80;;;;;;;0.25;100.00;101827.94;4993890;28;20037;-68
2023/12/16 05:27:35;;;;;;;13.75;9.75;;;;;;;0.28;100.00;101832.44;4993775;28;20109;-68
2023/12/16 05:30:02;;;;;;;11.55;5.78;;;;;;;0.30;100.00;101830.97;4993662;28;20096;-68
2023/12/16 05:32:28;;;;;;;14.32;8.82;;;;;;;0.33;100.00;101851.56;4993727;28;20042;-68
2023/12/16 05:34:55;;;;;;;18.17;11.10;;;;;;;0.35;100.00;101844.09;4993544;28;20027;-68
2023/12/16 05:37:20;;;;;;;15.05;10.60;;;;;;;0.33;100.00;101846.50;4993618;28;20117;-68
2023/12/16 05:39:46;;;;;;;10.43;7.70;;;;;;;0.36;100.00;101864.56;4993672;28;20117;-68
2023/12/16 05:42:12;;;;;;;16.88;11.00;;;;;;;0.28;100.00;101837.53;4993474;28;20030;-68
2023/12/16 05:44:37;;;;;;;11.07;8.55;;;;;;;0.29;100.00;101860.53;4993386;28;20495;-68
2023/12/16 05:47:05;;;;;;;9.85;7.25;;;;;;;0.40;100.00;101860.69;4993633;28;20030;-68
2023/12/16 05:49:30;;;;;;;9.93;6.70;;;;;;;0.37;100.00;101852.78;4990981;28;20054;-69
2023/12/16 05:51:56;;;;;;;6.20;3.95;;;;;;;0.46;100.00;101885.09;4993366;28;20089;-69
2023/12/16 05:54:24;;;;;;;6.10;2.85;;;;;;;0.41;100.00;101876.13;4993292;28;20042;-68
2023/12/16 05:56:50;;;;;;;12.57;7.35;;;;;;;0.50;100.00;101899.00;4993302;28;20034;-68
2023/12/16 05:59:15;;;;;;;15.82;8.95;;;;;;;0.52;100.00;101894.06;4992710;28;20031;-68
2023/12/16 06:01:41;;;;;;;9.30;7.07;;;;;;;0.46;100.00;101895.25;4993246;28;20034;-68
2023/12/16 06:04:06;;;;;;;5.80;4.03;;;;;;;0.51;100.00;101902.44;4991998;28;20555;-68
2023/12/16 06:06:32;;;;;;;7.63;5.22;;;;;;;0.48;100.00;101901.38;4993134;28;20058;-68
2023/12/16 06:08:57;;;;;;;6.28;3.47;;;;;;;0.48;100.00;101896.28;4992903;28;20416;-68
2023/12/16 06:11:23;;;;;;;7.43;4.90;;;;;;;0.48;100.00;101893.75;4992904;28;20030;-69
2023/12/16 06:13:52;;;;;;;4.07;2.90;;;;;;;0.52;100.00;101902.59;4993281;28;20034;-68
2023/12/16 06:16:18;;;;;;;9.45;4.40;;;;;;;0.51;100.00;101898.25;4992657;28;20034;-68
2023/12/16 06:18:45;;;;;;;8.95;7.32;;;;;;;0.50;100.00;101903.19;4992791;28;20049;-68
2023/12/16 06:21:11;;;;;;;7.70;4.43;;;;;;;0.53;100.00;101922.16;4992882;28;20084;-69
2023/12/16 06:23:37;;;;;;;13.82;10.68;;;;;;;0.53;100.00;101918.75;4992903;28;20026;-68
2023/12/16 06:26:03;;;;;;;6.13;3.15;;;;;;;0.47;100.00;101912.31;4992128;28;20038;-68
2023/12/16 06:28:28;;;;;;;6.65;3.95;;;;;;;0.53;100.00;101929.78;4992285;28;20026;-68
2023/12/16 06:30:54;;;;;;;7.05;4.20;;;;;;;0.55;100.00;101929.94;4992628;28;20475;-68
2023/12/16 06:33:19;;;;;;;8.02;4.22;;;;;;;0.55;100.00;101929.94;4993667;28;20034;-68
2023/12/16 06:35:45;;;;;;;10.38;7.40;;;;;;;0.57;100.00;101936.97;4992528;28;20030;-68
2023/12/16 06:38:10;;;;;;;7.55;5.60;;;;;;;0.56;100.00;101940.28;4992416;28;20029;-68
2023/12/16 06:40:36;;;;;;;13.90;10.98;;;;;;;0.40;100.00;101914.97;4992526;28;20029;-68
2023/12/16 06:43:02;;;;;;;12.52;8.18;;;;;;;0.13;100.00;101877.50;4992154;28;20027;-68
2023/12/16 06:45:28;;;;;;;5.35;3.85;;;;;;;0.32;100.00;101895.50;5005725;28;20092;-68
2023/12/16 06:47:54;;;;;;;8.57;4.95;;;;;;;0.59;100.00;101947.31;5011883;28;20048;-68
2023/12/16 06:50:20;;;;;;;8.70;5.35;;;;;;;0.64;100.00;101956.31;5011840;28;20042;-68
2023/12/16 06:52:45;;;;;;;12.20;9.48;;;;;;;0.19;100.00;101879.75;5011675;28;20491;-68
2023/12/16 06:55:30;;;;;;;5.78;3.78;;;;;;;0.58;100.00;101964.19;5028674;28;20046;-68
2023/12/16 06:57:56;;;;;;;6.78;4.00;;;;;;;0.67;100.00;101970.97;5028988;28;20048;-68
2023/12/16 07:00:21;;;;;;;8.15;6.00;;;;;;;0.69;100.00;101974.56;5028676;28;20136;-69
2023/12/16 07:02:47;;;;;;;10.18;5.38;;;;;;;0.69;100.00;101979.66;5028782;28;20112;-69
2023/12/16 07:05:12;;;;;;;5.82;3.72;;;;;;;0.68;100.00;101988.91;5028657;28;20415;-69
2023/12/16 07:07:38;;;;;;;11.75;5.20;;;;;;;0.71;100.00;101988.31;5028734;28;20147;-69
2023/12/16 07:10:07;;;;;;;16.42;11.02;;;;;;;0.68;100.00;101973.66;5028718;28;20045;-68
2023/12/16 07:12:33;;;;;;;15.77;11.10;;;;;;;0.78;100.00;101994.16;5028868;28;20044;-69
2023/12/16 07:14:58;;;;;;;14.18;9.77;;;;;;;0.78;100.00;102001.78;5028532;28;20034;-69
2023/12/16 07:17:24;;;;;;;15.45;6.88;;;;;;;0.78;100.00;102000.91;5028629;28;20031;-69
2023/12/16 07:19:50;;;;;;;6.32;3.15;;;;;;;0.83;100.00;102011.53;5028517;28;20144;-68
2023/12/16 07:22:16;;;;;;;8.95;3.58;;;;;;;0.74;100.00;101998.81;5028586;28;20547;-68
2023/12/16 07:24:43;;;;;;;6.82;3.30;;;;;;;0.79;100.00;102008.66;4994198;28;20041;-68
2023/12/16 07:27:08;;;;;;;5.03;3.15;;;;;;;0.75;100.00;102003.16;4990649;28;20053;-69
2023/12/16 07:29:34;;;;;;;10.07;6.80;;;;;;;0.81;100.00;102013.94;5008189;28;20963;-68
2023/12/16 07:32:00;;;;;;;5.30;3.70;;;;;;;0.76;100.00;102023.63;5009381;28;20109;-69
2023/12/16 07:34:25;;;;;;;11.95;6.07;;;;;;;0.75;100.00;102015.84;5011125;28;20034;-68
2023/12/16 07:36:51;;;;;;;4.07;2.92;;;;;;;0.73;100.00;102022.41;5009785;28;20030;-68
2023/12/16 07:39:17;;;;;;;3.63;2.50;;;;;;;0.78;100.00;102023.78;5008531;28;20030;-69
2023/12/16 07:41:42;;;;;;;6.57;3.08;;;;;;;0.80;100.00;102035.00;5008901;28;20507;-69
2023/12/16 07:44:09;;;;;;;10.85;7.50;;;;;;;0.73;100.00;102018.22;5008659;28;20025;-69
2023/12/16 07:46:34;;;;;;;18.80;12.80;;;;;;;0.82;100.00;102032.63;5010975;28;20034;-68
2023/12/16 07:49:00;;;;;;;16.30;10.98;;;;;;;0.76;100.00;102043.97;5010659;28;20473;-68
2023/12/16 07:51:25;;;;;;;17.70;11.38;;;;;;;0.70;100.00;102022.09;5010714;28;20032;-68
2023/12/16 07:53:51;;;;;;;11.75;8.18;;;;;;;0.74;100.00;102027.66;5010443;28;20037;-68
2023/12/16 07:56:26;;;;;;;12.25;8.52;;;;;;;0.69;100.00;102027.94;5010940;28;20097;-68
2023/12/16 07:58:52;;;;;;;10.43;7.30;;;;;;;0.77;100.00;102049.94;5010900;28;20396;-68
2023/12/16 08:01:18;;;;;;;16.80;11.57;;;;;;;0.78;100.00;102042.47;5010539;28;20030;-69
2023/12/16 08:03:44;;;;;;;16.35;10.63;;;;;;;0.80;100.00;102053.69;5024942;28;20108;-68
2023/12/16 08:06:10;;;;;;;11.27;7.05;;;;;;;0.35;100.00;101971.13;5010565;28;20054;-69
2023/12/16 08:08:39;;;;;;;13.27;10.65;;;;;;;0.78;100.00;102047.53;5010614;28;20092;-68
2023/12/16 08:11:08;;;;;;;9.10;5.40;;;;;;;0.22;100.00;101951.19;5010826;28;20101;-69
2023/12/16 08:13:37;;;;;;;9.13;6.38;;;;;;;0.77;100.00;102052.47;5010756;28;20117;-68
2023/12/16 08:16:07;;;;;;;17.05;10.15;;;;;;;0.63;100.00;102035.81;5009430;28;20022;-68
2023/12/16 08:18:32;;;;;;;;;;;;;;;0.85;100.00;102065.97;5010885;28;20488;-69
2023/12/16 08:20:58;;;;;;;11.65;5.82;;;;;;;0.86;100.00;102060.13;5010066;28;19965;-68
2023/12/16 08:23:24;;;;;;;5.18;3.15;;;;;;;0.80;100.00;102060.44;5010491;28;20034;-68
2023/12/16 08:25:50;;;;;;;6.47;3.70;;;;;;;0.86;100.00;102070.31;5010543;28;20030;-68
2023/12/16 08:28:16;;;;;;;6.60;4.20;;;;;;;0.66;100.00;102022.53;5010455;28;20551;-68
2023/12/16 08:30:43;;;;;;;11.73;7.90;;;;;;;0.89;100.00;102061.34;5010317;28;20025;-69
2023/12/16 08:33:08;;;;;;;7.47;4.90;;;;;;;0.91;100.00;102064.97;5010324;28;20076;-69
2023/12/16 08:35:34;;;;;;;10.00;8.38;;;;;;;0.95;100.00;102066.19;5009989;28;20492;-68
2023/12/16 08:38:01;;;;;;;9.13;6.13;;;;;;;0.95;100.00;102063.63;5010264;28;20046;-68
2023/12/16 08:40:26;;;;;;;11.15;7.35;;;;;;;0.48;100.00;101989.41;5009010;28;20120;-69
2023/12/16 08:42:52;;;;;;;10.85;6.78;;;;;;;0.40;100.00;101973.41;5010131;28;20108;-68
2023/12/16 08:45:17;;;;;;;9.80;6.85;;;;;;;0.48;100.00;101990.31;5010106;28;20033;-69
2023/12/16 08:47:43;;;;;;;8.98;6.47;;;;;;;1.00;100.00;102082.81;5010082;28;20084;-69
2023/12/16 08:50:09;;;;;;;13.98;10.75;;;;;;;0.60;100.00;102013.53;5013307;28;20516;-69
2023/12/16 08:52:35;;;;;;;9.27;6.82;;;;;;;0.97;100.00;102074.84;5014004;28;20026;-68
2023/12/16 08:55:01;;;;;;;7.85;5.97;;;;;;;1.00;100.00;102081.88;5012922;28;20038;-69
2023/12/16 08:57:30;;;;;;;10.10;7.03;;;;;;;0.78;100.00;102045.00;5013536;28;20503;-69
2023/12/16 08:59:56;;;;;;;10.10;6.53;;;;;;;1.01;100.00;102087.16;5011723;28;20032;-68
2023/12/16 09:02:22;;;;;;;7.28;4.95;;;;;;;0.97;100.00;102079.94;5026144;28;20488;-68
2023/12/16 09:04:49;;;;;;;6.15;4.22;;;;;;;1.02;100.00;102090.56;5013031;28;20540;-69
2023/12/16 09:07:15;;;;;;;11.68;7.30;;;;;;;1.02;100.00;102080.41;5013210;28;20058;-69
2023/12/16 09:09:40;;;;;;;5.82;4.00;;;;;;;1.07;100.00;102091.94;4994227;28;20114;-69
2023/12/16 09:12:07;;;;;;;8.45;5.13;;;;;;;1.10;100.00;102085.53;5012315;28;20131;-69
2023/12/16 09:14:33;;;;;;;5.53;4.10;;;;;;;1.09;100.00;102087.91;5013032;28;20049;-68
2023/12/16 09:16:58;;;;;;;7.38;4.90;;;;;;;1.11;100.00;102087.31;5013405;28;20048;-69
2023/12/16 09:19:24;;;;;;;6.75;3.65;;;;;;;1.14;100.00;102089.28;5012578;28;20030;-68
2023/12/16 09:25:12;;;;;;;7.47;5.22;;;;;;;1.15;100.00;102085.06;5131116;23;20112;-69
2023/12/16 09:27:37;;;;;;;5.85;3.75;;;;;;;0.84;100.00;102023.50;4993397;28;20038;-68
2023/12/16 09:30:03;;;;;;;2.65;1.35;;;;;;;1.19;100.00;102084.66;4993980;28;20084;-68
2023/12/16 09:32:29;;;;;;;4.38;2.22;;;;;;;0.92;100.00;102033.72;4993786;28;20023;-68
2023/12/16 09:34:55;;;;;;;3.70;1.80;;;;;;;1.18;100.00;102073.56;4993815;28;20060;-68
2023/12/16 09:37:21;;;;;;;4.22;1.42;;;;;;;1.22;100.00;102079.88;4993786;28;20522;-68
2023/12/16 09:39:46;;;;;;;2.47;1.50;;;;;;;1.26;100.00;102079.44;4993770;28;20101;-68
2023/12/16 09:42:15;;;;;;;2.28;1.58;;;;;;;1.25;100.00;102088.72;4993490;28;20022;-69
2023/12/16 09:44:41;;;;;;;1.75;1.10;;;;;;;1.28;100.00;102080.47;4993878;28;20032;-68
2023/12/16 09:47:12;;;;;;;4.32;1.60;;;;;;;1.24;100.00;102065.66;4993439;28;20463;-68
2023/12/16 09:49:41;;;;;;;2.35;1.40;;;;;;;1.39;100.00;102085.00;4993659;28;20022;-68
2023/12/16 09:52:07;;;;;;;1.33;1.00;;;;;;;1.35;100.00;102089.66;4993541;28;20528;-68
2023/12/16 09:54:32;;;;;;;1.15;1.00;;;;;;;1.36;100.00;102086.34;4993406;28;20038;-68
2023/12/16 09:57:00;;;;;;;1.88;1.00;;;;;;;1.34;100.00;102087.84;4993688;28;20037;-68
2023/12/16 09:59:28;;;;;;;1.35;1.00;;;;;;;1.26;100.00;102059.09;4993518;28;20038;-69
2023/12/16 10:01:57;;;;;;;3.45;1.85;;;;;;;1.38;100.00;102087.41;4992658;28;20117;-69
2023/12/16 10:04:24;;;;;;;3.63;2.28;;;;;;;1.39;100.00;102085.00;4991992;28;20036;-69
2023/12/16 10:06:50;;;;;;;3.60;2.13;;;;;;;1.39;100.00;102085.00;4991549;28;20034;-68
2023/12/16 10:09:16;;;;;;;3.25;1.90;;;;;;;1.40;100.00;102083.38;4992473;28;20027;-69
2023/12/16 10:11:42;;;;;;;6.20;3.30;;;;;;;1.41;100.00;102085.19;5023833;28;20129;-69
2023/12/16 10:14:07;;;;;;;7.10;3.78;;;;;;;1.41;100.00;102088.59;4992647;28;20041;-69
2023/12/16 10:16:33;;;;;;;13.32;8.48;;;;;;;1.50;100.00;102085.19;4992864;28;20033;-69
2023/12/16 10:18:59;;;;;;;6.82;3.22;;;;;;;1.48;100.00;102092.66;4992806;28;20484;-69
2023/12/16 10:21:33;;;;;;;10.30;5.18;;;;;;;1.47;100.00;102095.03;4992895;28;20058;-69
2023/12/16 10:24:00;;;;;;;5.43;3.55;;;;;;;1.47;100.00;102089.97;4991970;28;20116;-69
2023/12/16 10:26:31;;;;;;;12.20;6.97;;;;;;;1.48;100.00;102091.75;4991629;28;20049;-69
2023/12/16 10:28:57;;;;;;;4.95;2.63;;;;;;;1.48;100.00;102099.41;4992976;28;20110;-69
2023/12/16 10:31:24;;;;;;;5.75;3.15;;;;;;;1.49;100.00;102099.53;4992630;28;20125;-69
2023/12/16 10:33:51;;;;;;;8.75;4.95;;;;;;;1.40;100.00;102081.72;4992540;28;20081;-67
2023/12/16 10:36:17;;;;;;;9.85;5.40;;;;;;;1.56;100.00;102108.72;4992417;28;20030;-69
2023/12/16 10:38:43;;;;;;;12.05;4.75;;;;;;;1.56;100.00;102101.06;4992666;28;20061;-69
2023/12/16 10:41:09;;;;;;;20.73;7.10;;;;;;;1.59;100.00;102097.16;4992627;28;20121;-69
2023/12/16 10:43:34;;;;;;;10.30;3.53;;;;;;;1.63;100.00;102105.13;4992507;28;20027;-69
2023/12/16 10:46:04;;;;;;;3.25;1.90;;;;;;;1.61;100.00;102089.69;4992588;28;20081;-69
2023/12/16 10:48:35;;;;;;;6.68;4.38;;;;;;;1.61;100.00;102100.75;4992513;28;20405;-69
2023/12/16 10:51:02;;;;;;;7.78;5.32;;;;;;;1.44;100.00;102054.91;4992288;28;20045;-69
2023/12/16 10:53:41;;;;;;;4.40;3.22;;;;;;;1.28;100.00;102024.50;4992467;28;20033;-70
2023/12/16 10:56:16;;;;;;;4.57;3.30;;;;;;;1.77;100.00;102109.94;4992766;28;20109;-69
2023/12/16 10:58:59;;;;;;;9.93;4.72;;;;;;;1.76;100.00;102103.94;4991999;28;20109;-69
2023/12/16 11:01:29;;;;;;;7.68;3.50;;;;;;;1.42;100.00;102036.97;4991855;28;20529;-69
2023/12/16 11:04:15;;;;;;;10.57;3.05;;;;;;;1.76;100.00;102093.75;4992326;28;20113;-68
2023/12/16 11:06:51;;;;;;;8.23;6.68;;;;;;;1.78;100.00;102102.44;4991877;28;20030;-68
2023/12/16 11:09:18;;;;;;;4.70;3.20;;;;;;;1.78;100.00;102094.81;4991908;28;20022;-68
2023/12/16 11:11:45;;;;;;;3.90;2.70;;;;;;;1.78;100.00;102088.78;4991716;28;20027;-69
2023/12/16 11:14:11;;;;;;;4.15;2.28;;;;;;;1.81;100.00;102078.00;4991673;28;20386;-68
2023/12/16 11:16:57;;;;;;;6.28;2.70;;;;;;;1.78;100.00;102074.44;4991871;28;20493;-68
2023/12/16 11:19:34;;;;;;;4.05;2.35;;;;;;;1.71;100.00;102072.03;4989044;28;20536;-70
2023/12/16 11:22:00;;;;;;;3.65;2.38;;;;;;;1.78;100.00;102082.06;4972570;28;20038;-70